createdAt,value
2023-02-02T00:02:07.787Z,6.90
2023-02-02T00:04:37.235Z,6.90
2023-02-02T00:07:07.302Z,6.90
2023-02-02T00:09:35.031Z,6.80
2023-02-02T00:12:03.051Z,6.80
2023-02-02T00:14:30.809Z,6.70
2023-02-02T00:16:58.958Z,6.70
2023-02-02T00:19:31.350Z,6.80
2023-02-02T00:21:59.060Z,6.80
2023-02-02T00:24:26.836Z,6.80
2023-02-02T00:26:56.261Z,6.80
2023-02-02T00:29:25.696Z,6.80
2023-02-02T00:31:53.702Z,6.80
2023-02-02T00:34:22.284Z,6.80
2023-02-02T00:36:51.952Z,6.80
2023-02-02T00:39:21.741Z,6.80
2023-02-02T00:41:50.683Z,6.80
2023-02-02T00:44:33.461Z,6.80
2023-02-02T00:47:01.250Z,6.80
2023-02-02T00:49:29.002Z,6.80
2023-02-02T00:51:58.951Z,6.80
2023-02-02T00:54:26.708Z,6.80
2023-02-02T00:56:54.418Z,6.80
2023-02-02T00:59:22.105Z,6.80
2023-02-02T01:01:49.862Z,6.80
2023-02-02T01:04:17.604Z,6.80
2023-02-02T01:06:45.286Z,6.80
2023-02-02T01:09:14.288Z,6.90
2023-02-02T01:11:42.497Z,6.90
2023-02-02T01:14:10.294Z,6.90
2023-02-02T01:16:38.078Z,6.90
2023-02-02T01:19:05.782Z,6.90
2023-02-02T01:21:33.596Z,6.90
2023-02-02T01:24:01.352Z,6.80
2023-02-02T01:26:30.436Z,6.70
2023-02-02T01:28:58.759Z,6.60
2023-02-02T01:31:26.603Z,6.60
2023-02-02T01:33:54.506Z,6.50
2023-02-02T01:36:24.687Z,6.50
2023-02-02T01:38:52.813Z,6.50
2023-02-02T01:41:23.124Z,6.40
2023-02-02T01:43:55.038Z,6.40
2023-02-02T01:46:25.275Z,6.40
2023-02-02T01:48:59.302Z,6.40
2023-02-02T01:51:33.506Z,6.40
2023-02-02T01:54:01.917Z,6.40
2023-02-02T01:56:33.626Z,6.50
2023-02-02T01:59:04.166Z,6.50
2023-02-02T02:01:32.075Z,6.50
2023-02-02T02:04:00.414Z,6.60
2023-02-02T02:06:29.750Z,6.60
2023-02-02T02:09:01.056Z,6.60
2023-02-02T02:11:29.051Z,6.50
2023-02-02T02:14:13.644Z,6.50
2023-02-02T02:16:55.484Z,6.40
2023-02-02T02:20:03.162Z,6.40
2023-02-02T02:23:01.037Z,6.40
2023-02-02T02:26:08.181Z,6.40
2023-02-02T02:29:02.737Z,6.40
2023-02-02T02:31:53.082Z,6.40
2023-02-02T02:34:25.195Z,6.40
2023-02-02T02:36:59.293Z,6.30
2023-02-02T02:39:31.737Z,6.30
2023-02-02T02:42:04.780Z,6.30
2023-02-02T02:44:35.559Z,6.20
2023-02-02T02:47:05.180Z,6.20
2023-02-02T02:49:32.989Z,6.20
2023-02-02T02:52:00.845Z,6.20
2023-02-02T02:54:36.532Z,6.20
2023-02-02T02:57:21.639Z,6.20
2023-02-02T03:00:00.743Z,6.20
2023-02-02T03:02:40.763Z,6.20
2023-02-02T03:05:18.807Z,6.30
2023-02-02T03:07:52.700Z,6.20
2023-02-02T03:10:23.738Z,6.30
2023-02-02T03:12:52.657Z,6.20
2023-02-02T03:15:20.693Z,6.20
2023-02-02T03:17:51.328Z,6.20
2023-02-02T03:20:19.479Z,6.20
2023-02-02T03:22:47.212Z,6.20
2023-02-02T03:25:16.256Z,6.20
2023-02-02T03:27:44.260Z,6.20
2023-02-02T03:30:13.891Z,6.20
2023-02-02T03:32:42.494Z,6.20
2023-02-02T03:35:11.801Z,6.20
2023-02-02T03:37:39.511Z,6.20
2023-02-02T03:40:08.152Z,6.20
2023-02-02T03:42:35.970Z,6.20
2023-02-02T03:45:03.682Z,6.30
2023-02-02T03:47:32.038Z,6.30
2023-02-02T03:49:59.838Z,6.30
2023-02-02T03:52:28.870Z,6.30
2023-02-02T03:54:56.535Z,6.30
2023-02-02T03:57:24.255Z,6.30
2023-02-02T03:59:51.921Z,6.30
2023-02-02T04:02:19.655Z,6.30
2023-02-02T04:04:51.096Z,6.30
2023-02-02T04:07:18.814Z,6.30
2023-02-02T04:09:48.970Z,6.30
2023-02-02T04:12:16.674Z,6.30
2023-02-02T04:14:45.540Z,6.30
2023-02-02T04:17:13.183Z,6.30
2023-02-02T04:19:40.840Z,6.30
2023-02-02T04:22:08.505Z,6.40
2023-02-02T04:24:38.049Z,6.40
2023-02-02T04:27:07.173Z,6.50
2023-02-02T04:29:34.860Z,6.50
2023-02-02T04:32:02.511Z,6.50
2023-02-02T04:34:30.167Z,6.50
2023-02-02T04:36:57.869Z,6.60
2023-02-02T04:39:25.680Z,6.50
2023-02-02T04:41:53.582Z,6.50
2023-02-02T04:44:22.675Z,6.50
2023-02-02T04:46:50.340Z,6.60
2023-02-02T04:49:18.166Z,6.60
2023-02-02T04:51:45.935Z,6.60
2023-02-02T04:54:13.610Z,6.60
2023-02-02T04:56:41.286Z,6.60
2023-02-02T04:59:08.991Z,6.70
2023-02-02T05:01:37.990Z,6.70
2023-02-02T05:04:06.033Z,6.70
2023-02-02T05:06:33.770Z,6.80
2023-02-02T05:09:01.627Z,6.80
2023-02-02T05:11:33.046Z,6.70
2023-02-02T05:14:00.747Z,6.80
2023-02-02T05:16:29.200Z,6.80
2023-02-02T05:18:59.364Z,6.90
2023-02-02T05:21:27.205Z,6.90
2023-02-02T05:23:54.892Z,6.90
2023-02-02T05:26:25.709Z,6.90
2023-02-02T05:28:54.028Z,6.90
2023-02-02T05:31:23.090Z,6.90
2023-02-02T05:34:01.899Z,6.90
2023-02-02T05:36:40.616Z,7.00
2023-02-02T05:39:08.470Z,7.00
2023-02-02T05:41:36.167Z,7.00
2023-02-02T05:44:04.414Z,7.00
2023-02-02T05:46:32.239Z,7.00
2023-02-02T05:49:00.144Z,7.00
2023-02-02T05:51:32.767Z,7.00
2023-02-02T05:54:01.185Z,6.90
2023-02-02T05:56:28.917Z,7.00
2023-02-02T05:58:56.624Z,6.90
2023-02-02T06:01:24.504Z,7.00
2023-02-02T06:03:52.342Z,6.90
2023-02-02T06:06:20.146Z,7.00
2023-02-02T06:08:49.124Z,7.00
2023-02-02T06:11:18.315Z,7.00
2023-02-02T06:13:46.453Z,6.90
2023-02-02T06:16:14.336Z,6.80
2023-02-02T06:18:42.140Z,6.80
2023-02-02T06:21:10.826Z,6.70
2023-02-02T06:23:38.529Z,6.70
2023-02-02T06:26:08.141Z,6.70
2023-02-02T06:28:35.834Z,6.60
2023-02-02T06:31:05.972Z,6.60
2023-02-02T06:33:33.794Z,6.60
2023-02-02T06:36:02.441Z,6.60
2023-02-02T06:38:30.275Z,6.60
2023-02-02T06:41:00.434Z,6.60
2023-02-02T06:43:30.020Z,6.60
2023-02-02T06:45:58.730Z,6.60
2023-02-02T06:48:26.830Z,6.60
2023-02-02T06:50:54.818Z,6.60
2023-02-02T06:53:23.167Z,6.60
2023-02-02T06:55:54.543Z,6.60
2023-02-02T06:58:22.373Z,6.60
2023-02-02T07:00:51.650Z,6.60
2023-02-02T07:03:21.260Z,6.60
2023-02-02T07:05:49.321Z,6.70
2023-02-02T07:08:17.464Z,6.60
2023-02-02T07:11:13.380Z,6.70
2023-02-02T07:13:35.250Z,6.70
2023-02-02T07:16:05.711Z,6.60
2023-02-02T07:18:33.758Z,6.70
2023-02-02T07:21:02.055Z,6.70
2023-02-02T07:23:30.704Z,6.70
2023-02-02T07:26:02.927Z,6.70
2023-02-02T07:28:30.883Z,6.80
2023-02-02T07:30:58.699Z,6.80
2023-02-02T07:33:28.066Z,6.90
2023-02-02T07:35:55.885Z,7.00
2023-02-02T07:38:23.561Z,7.00
2023-02-02T07:40:51.322Z,7.00
2023-02-02T07:43:20.424Z,7.00
2023-02-02T07:45:50.180Z,7.10
2023-02-02T07:48:17.880Z,7.10
2023-02-02T07:50:47.250Z,7.10
2023-02-02T07:53:17.476Z,7.10
2023-02-02T07:55:45.187Z,7.10
2023-02-02T07:58:12.867Z,7.10
2023-02-02T08:00:42.158Z,7.10
2023-02-02T08:03:11.913Z,7.20
2023-02-02T08:05:39.750Z,7.20
2023-02-02T08:08:08.777Z,7.20
2023-02-02T08:10:36.506Z,7.20
2023-02-02T08:13:04.201Z,7.20
2023-02-02T08:15:32.030Z,7.30
2023-02-02T08:17:59.854Z,7.30
2023-02-02T08:20:27.535Z,7.30
2023-02-02T08:22:55.271Z,7.30
2023-02-02T08:25:25.716Z,7.40
2023-02-02T08:27:57.034Z,7.40
2023-02-02T08:30:25.149Z,7.40
2023-02-02T08:32:52.914Z,7.40
2023-02-02T08:35:21.631Z,7.40
2023-02-02T08:37:49.657Z,7.50
2023-02-02T08:40:18.513Z,7.50
2023-02-02T08:42:51.008Z,7.50
2023-02-02T08:46:03.305Z,7.60
2023-02-02T08:48:11.941Z,7.60
2023-02-02T08:50:40.900Z,7.60
2023-02-02T08:53:08.623Z,7.60
2023-02-02T08:55:36.373Z,7.60
2023-02-02T08:58:05.460Z,7.60
2023-02-02T09:00:33.188Z,7.60
2023-02-02T09:03:00.894Z,7.60
2023-02-02T09:05:28.627Z,7.60
2023-02-02T09:07:56.341Z,7.70
2023-02-02T09:10:24.047Z,7.80
2023-02-02T09:12:51.804Z,7.80
2023-02-02T09:15:20.830Z,7.90
2023-02-02T09:17:48.692Z,7.90
2023-02-02T09:20:16.398Z,8.00
2023-02-02T09:22:44.136Z,8.00
2023-02-02T09:25:11.824Z,7.90
2023-02-02T09:27:40.914Z,7.80
2023-02-02T09:30:10.409Z,7.70
2023-02-02T09:32:41.849Z,7.70
2023-02-02T09:35:09.967Z,7.70
2023-02-02T09:37:37.918Z,7.70
2023-02-02T09:40:06.271Z,7.70
2023-02-02T09:42:46.957Z,7.70
2023-02-02T09:45:23.120Z,7.60
2023-02-02T09:48:00.813Z,7.60
2023-02-02T09:50:40.501Z,7.70
2023-02-02T09:53:15.537Z,7.60
2023-02-02T09:55:48.084Z,7.70
2023-02-02T09:58:21.426Z,7.70
2023-02-02T10:00:57.172Z,7.70
2023-02-02T10:03:33.549Z,7.70
2023-02-02T10:06:07.268Z,7.70
2023-02-02T10:08:42.129Z,7.70
2023-02-02T10:11:26.630Z,7.70
2023-02-02T10:14:01.294Z,7.70
2023-02-02T10:16:30.874Z,7.70
2023-02-02T10:19:04.855Z,7.70
2023-02-02T10:21:40.789Z,7.70
2023-02-02T10:24:18.085Z,7.80
2023-02-02T10:26:49.552Z,7.80
2023-02-02T10:29:19.314Z,7.90
2023-02-02T10:32:00.217Z,7.80
2023-02-02T10:34:37.012Z,7.80
2023-02-02T10:37:17.794Z,7.80
2023-02-02T10:39:59.206Z,7.90
2023-02-02T10:42:36.447Z,7.90
2023-02-02T10:45:11.614Z,7.90
2023-02-02T10:47:39.580Z,7.90
2023-02-02T10:50:17.710Z,7.90
2023-02-02T10:52:49.629Z,7.90
2023-02-02T10:55:26.464Z,7.90
2023-02-02T10:58:02.153Z,8.00
2023-02-02T11:00:37.029Z,7.90
2023-02-02T11:03:09.522Z,7.90
2023-02-02T11:05:53.122Z,8.00
2023-02-02T11:08:33.334Z,8.00
2023-02-02T11:11:12.494Z,8.00
2023-02-02T11:13:44.671Z,8.10
2023-02-02T11:16:21.291Z,8.30
2023-02-02T11:18:49.910Z,8.30
2023-02-02T11:21:25.154Z,8.30
2023-02-02T11:23:55.503Z,8.40
2023-02-02T11:26:25.135Z,8.60
2023-02-02T11:28:55.838Z,8.70
2023-02-02T11:31:32.162Z,8.70
2023-02-02T11:34:11.796Z,8.80
2023-02-02T11:36:40.906Z,8.80
2023-02-02T11:39:17.295Z,8.80
2023-02-02T11:41:45.056Z,8.80
2023-02-02T11:44:24.862Z,8.80
2023-02-02T11:46:53.414Z,8.80
2023-02-02T11:49:24.094Z,8.80
2023-02-02T11:52:04.282Z,8.70
2023-02-02T11:54:34.398Z,8.70
2023-02-02T11:57:05.814Z,8.80
2023-02-02T11:59:39.426Z,8.80
2023-02-02T12:02:23.587Z,8.80
2023-02-02T12:04:54.129Z,8.90
2023-02-02T12:07:28.466Z,8.90
2023-02-02T12:10:01.304Z,8.90
2023-02-02T12:12:42.059Z,8.90
2023-02-02T12:15:21.791Z,9.00
2023-02-02T12:17:52.219Z,9.00
2023-02-02T12:20:28.775Z,9.00
2023-02-02T12:23:21.424Z,9.00
2023-02-02T12:26:04.346Z,8.90
2023-02-02T12:28:45.397Z,8.80
2023-02-02T12:31:27.212Z,8.80
2023-02-02T12:33:59.548Z,8.70
2023-02-02T12:36:39.780Z,8.70
2023-02-02T12:39:21.473Z,8.60
2023-02-02T12:42:12.869Z,8.50
2023-02-02T12:44:50.824Z,8.50
2023-02-02T12:47:25.312Z,8.40
2023-02-02T12:50:14.007Z,8.50
2023-02-02T12:52:55.943Z,8.50
2023-02-02T12:55:34.542Z,8.60
2023-02-02T12:58:11.563Z,8.50
2023-02-02T13:00:59.859Z,8.50
2023-02-02T13:03:37.307Z,8.50
2023-02-02T13:06:22.766Z,8.60
2023-02-02T13:08:58.633Z,8.60
2023-02-02T13:11:38.261Z,8.60
2023-02-02T13:14:10.708Z,8.70
2023-02-02T13:16:44.161Z,8.70
2023-02-02T13:19:21.835Z,8.60
2023-02-02T13:21:51.082Z,8.60
2023-02-02T13:24:31.508Z,8.60
2023-02-02T13:27:03.909Z,8.70
2023-02-02T13:29:37.900Z,8.60
2023-02-02T13:32:22.117Z,8.60
2023-02-02T13:34:56.975Z,8.70
2023-02-02T13:37:32.693Z,8.60
2023-02-02T13:40:05.963Z,8.70
2023-02-02T13:42:44.318Z,8.80
2023-02-02T13:45:33.454Z,8.70
2023-02-02T13:48:11.226Z,8.70
2023-02-02T13:50:54.436Z,8.70
2023-02-02T13:53:45.058Z,8.60
2023-02-02T13:56:35.235Z,8.60
2023-02-02T13:59:25.899Z,8.70
2023-02-02T14:01:54.833Z,8.70
2023-02-02T14:04:26.946Z,8.70
2023-02-02T14:06:57.928Z,8.70
2023-02-02T14:09:28.173Z,8.80
2023-02-02T14:12:00.043Z,8.70
2023-02-02T14:14:34.968Z,8.80
2023-02-02T14:17:05.649Z,8.70
2023-02-02T14:19:53.430Z,8.70
2023-02-02T14:22:40.433Z,8.70
2023-02-02T14:25:40.621Z,8.70
2023-02-02T14:28:12.585Z,8.70
2023-02-02T14:30:44.082Z,8.80
2023-02-02T14:33:37.977Z,8.70
2023-02-02T14:36:14.246Z,8.70
2023-02-02T14:39:00.859Z,8.70
2023-02-02T14:41:55.908Z,8.60
2023-02-02T14:44:23.925Z,8.60
2023-02-02T14:46:52.970Z,8.70
2023-02-02T14:49:25.696Z,8.70
2023-02-02T14:51:58.047Z,8.70
2023-02-02T14:54:31.406Z,8.70
2023-02-02T14:57:02.647Z,8.70
2023-02-02T14:59:34.028Z,8.60
2023-02-02T15:02:16.358Z,8.70
2023-02-02T15:04:48.290Z,8.70
2023-02-02T15:07:51.079Z,8.60
2023-02-02T15:11:00.959Z,8.60
2023-02-02T15:13:37.375Z,8.50
2023-02-02T15:16:13.922Z,8.50
2023-02-02T15:18:45.348Z,8.60
2023-02-02T15:21:21.937Z,8.60
2023-02-02T15:23:50.165Z,8.70
2023-02-02T15:26:24.116Z,8.70
2023-02-02T15:28:59.398Z,8.70
2023-02-02T15:31:34.413Z,8.60
2023-02-02T15:34:06.508Z,8.70
2023-02-02T15:36:38.395Z,8.60
2023-02-02T15:39:14.529Z,8.70
2023-02-02T15:41:44.881Z,8.60
2023-02-02T15:44:22.694Z,8.60
2023-02-02T15:46:50.667Z,8.60
2023-02-02T15:49:34.727Z,8.60
2023-02-02T15:52:13.458Z,8.60
2023-02-02T15:54:51.308Z,8.70
2023-02-02T15:57:27.292Z,8.60
2023-02-02T15:59:56.915Z,8.60
2023-02-02T16:02:32.927Z,8.50
2023-02-02T16:05:00.761Z,8.50
2023-02-02T16:07:31.183Z,8.50
2023-02-02T16:10:05.038Z,8.50
2023-02-02T16:12:35.155Z,8.60
2023-02-02T16:15:04.708Z,8.60
2023-02-02T16:17:35.356Z,8.50
2023-02-02T16:20:08.348Z,8.60
2023-02-02T16:22:37.339Z,8.60
2023-02-02T16:25:10.671Z,8.60
2023-02-02T16:27:38.936Z,8.50
2023-02-02T16:30:10.455Z,8.60
2023-02-02T16:32:40.146Z,8.50
2023-02-02T16:35:24.216Z,8.50
2023-02-02T16:37:52.143Z,8.50
2023-02-02T16:40:27.179Z,8.50
2023-02-02T16:43:05.977Z,8.50
2023-02-02T16:45:44.563Z,8.50
2023-02-02T16:48:29.039Z,8.60
2023-02-02T16:51:19.698Z,8.60
2023-02-02T16:53:49.507Z,8.60
2023-02-02T16:56:26.205Z,8.60
2023-02-02T16:58:58.866Z,8.50
2023-02-02T17:01:39.379Z,8.50
2023-02-02T17:04:17.023Z,8.50
2023-02-02T17:06:52.262Z,8.50
2023-02-02T17:09:34.846Z,8.50
2023-02-02T17:12:09.286Z,8.50
2023-02-02T17:14:51.881Z,8.40
2023-02-02T17:17:20.967Z,8.40
2023-02-02T17:19:48.819Z,8.40
2023-02-02T17:22:18.278Z,8.40
2023-02-02T17:24:48.767Z,8.40
2023-02-02T17:27:21.297Z,8.30
2023-02-02T17:29:49.412Z,8.30
2023-02-02T17:32:18.562Z,8.30
2023-02-02T17:34:47.659Z,8.30
2023-02-02T17:37:15.367Z,8.30
2023-02-02T17:39:44.259Z,8.30
2023-02-02T17:42:23.427Z,8.30
2023-02-02T17:44:51.163Z,8.30
2023-02-02T17:47:18.889Z,8.30
2023-02-02T17:49:48.107Z,8.30
2023-02-02T17:52:15.822Z,8.40
2023-02-02T17:54:43.937Z,8.40
2023-02-02T17:57:11.656Z,8.30
2023-02-02T17:59:39.344Z,8.30
2023-02-02T18:02:07.050Z,8.30
2023-02-02T18:04:34.731Z,8.20
2023-02-02T18:07:03.801Z,8.20
2023-02-02T18:09:33.969Z,8.20
2023-02-02T18:12:01.795Z,8.20
2023-02-02T18:14:29.875Z,8.10
2023-02-02T18:16:57.536Z,8.10
2023-02-02T18:19:25.230Z,8.10
2023-02-02T18:21:52.939Z,8.20
2023-02-02T18:24:22.117Z,8.20
2023-02-02T18:26:49.799Z,8.20
2023-02-02T18:29:17.650Z,8.30
2023-02-02T18:31:45.499Z,8.30
2023-02-02T18:34:13.203Z,8.30
2023-02-02T18:36:41.346Z,8.30
2023-02-02T18:39:09.845Z,8.30
2023-02-02T18:41:38.803Z,8.30
2023-02-02T18:44:08.999Z,8.20
2023-02-02T18:46:39.385Z,8.10
2023-02-02T18:49:07.471Z,8.10
2023-02-02T18:51:38.185Z,8.10
2023-02-02T18:54:32.281Z,8.10
2023-02-02T18:57:13.907Z,8.10
2023-02-02T18:59:42.890Z,8.10
2023-02-02T19:02:14.480Z,8.20
2023-02-02T19:05:04.099Z,8.20
2023-02-02T19:07:48.900Z,8.10
2023-02-02T19:10:17.961Z,8.10
2023-02-02T19:12:55.848Z,8.10
2023-02-02T19:15:25.309Z,8.10
2023-02-02T19:17:54.791Z,8.10
2023-02-02T19:20:27.615Z,8.00
2023-02-02T19:23:01.783Z,8.00
2023-02-02T19:25:29.740Z,8.00
2023-02-02T19:27:59.247Z,7.90
2023-02-02T19:30:27.347Z,7.90
2023-02-02T19:32:57.645Z,7.90
2023-02-02T19:35:27.601Z,8.00
2023-02-02T19:38:01.282Z,8.00
2023-02-02T19:40:29.515Z,8.00
2023-02-02T19:43:06.290Z,8.00
2023-02-02T19:45:35.760Z,8.00
2023-02-02T19:48:17.633Z,8.00
2023-02-02T19:50:46.191Z,8.00
2023-02-02T19:53:17.514Z,8.00
2023-02-02T19:55:45.218Z,8.00
2023-02-02T19:58:19.098Z,7.90
2023-02-02T20:00:47.853Z,7.80
2023-02-02T20:03:20.622Z,7.90
2023-02-02T20:05:50.479Z,7.80
2023-02-02T20:08:24.226Z,7.80
2023-02-02T20:10:52.946Z,7.80
2023-02-02T20:13:24.759Z,7.90
2023-02-02T20:16:03.321Z,7.90
2023-02-02T20:18:41.115Z,8.00
2023-02-02T20:21:18.461Z,8.00
2023-02-02T20:23:47.130Z,8.00
2023-02-02T20:26:23.099Z,8.00
2023-02-02T20:28:53.566Z,8.00
2023-02-02T20:31:24.087Z,8.00
2023-02-02T20:33:54.395Z,8.00
2023-02-02T20:36:31.521Z,8.00
2023-02-02T20:39:12.752Z,8.10
2023-02-02T20:41:40.432Z,8.00
2023-02-02T20:44:09.648Z,8.10
2023-02-02T20:46:37.471Z,8.10
2023-02-02T20:49:05.699Z,8.20
2023-02-02T20:51:37.051Z,8.20
2023-02-02T20:54:04.899Z,8.10
2023-02-02T20:56:32.548Z,8.10
2023-02-02T20:59:00.328Z,8.10
2023-02-02T21:01:31.209Z,8.10
2023-02-02T21:04:01.410Z,8.20
2023-02-02T21:06:29.921Z,8.20
2023-02-02T21:08:57.885Z,8.20
2023-02-02T21:11:26.782Z,8.20
2023-02-02T21:13:55.147Z,8.20
2023-02-02T21:16:23.101Z,8.10
2023-02-02T21:18:52.243Z,8.20
2023-02-02T21:21:22.409Z,8.20
2023-02-02T21:23:51.663Z,8.20
2023-02-02T21:26:21.997Z,8.10
2023-02-02T21:28:50.166Z,8.10
2023-02-02T21:31:18.926Z,8.10
2023-02-02T21:33:48.186Z,8.10
2023-02-02T21:36:29.327Z,8.00
2023-02-02T21:39:02.756Z,8.00
2023-02-02T21:41:32.806Z,8.00
2023-02-02T21:44:00.810Z,8.00
2023-02-02T21:46:36.574Z,8.00
2023-02-02T21:49:04.602Z,8.10
2023-02-02T21:51:36.915Z,8.00
2023-02-02T21:54:18.594Z,8.10
2023-02-02T21:56:46.357Z,8.10
2023-02-02T21:59:17.096Z,8.00
2023-02-02T22:01:45.943Z,8.00
2023-02-02T22:04:20.923Z,7.90
2023-02-02T22:06:51.758Z,7.90
2023-02-02T22:09:22.525Z,7.90
2023-02-02T22:11:53.542Z,7.90
2023-02-02T22:14:26.255Z,7.90
2023-02-02T22:16:57.410Z,7.90
2023-02-02T22:19:29.346Z,7.90
2023-02-02T22:22:14.653Z,7.90
2023-02-02T22:24:43.203Z,7.80
2023-02-02T22:27:28.568Z,7.80
2023-02-02T22:30:02.235Z,7.70
2023-02-02T22:32:29.959Z,7.70
2023-02-02T22:34:57.647Z,7.70
2023-02-02T22:37:26.683Z,7.70
2023-02-02T22:39:54.359Z,7.70
2023-02-02T22:42:22.043Z,7.70
2023-02-02T22:44:50.447Z,7.70
2023-02-02T22:47:18.522Z,7.70
2023-02-02T22:49:46.251Z,7.70
2023-02-02T22:52:13.941Z,7.70
2023-02-02T22:54:43.063Z,7.70
2023-02-02T22:57:10.746Z,7.50
2023-02-02T22:59:40.842Z,7.50
2023-02-02T23:02:08.529Z,7.40
2023-02-02T23:04:36.204Z,7.30
2023-02-02T23:07:03.966Z,7.30
2023-02-02T23:09:33.155Z,7.40
2023-02-02T23:12:02.147Z,7.30
2023-02-02T23:14:29.884Z,7.30
2023-02-02T23:16:58.759Z,7.30
2023-02-02T23:19:26.471Z,7.40
2023-02-02T23:21:54.148Z,7.40
2023-02-02T23:24:21.855Z,7.40
2023-02-02T23:26:49.694Z,7.40
2023-02-02T23:29:22.315Z,7.40
2023-02-02T23:31:50.118Z,7.40
2023-02-02T23:34:17.880Z,7.50
2023-02-02T23:36:46.056Z,7.50
2023-02-02T23:39:13.777Z,7.50
2023-02-02T23:41:41.550Z,7.60
2023-02-02T23:44:09.214Z,7.60
2023-02-02T23:46:39.573Z,7.60
2023-02-02T23:49:07.499Z,7.60
2023-02-02T23:51:35.489Z,7.60
2023-02-02T23:54:03.441Z,7.70
2023-02-02T23:56:32.431Z,7.60
2023-02-02T23:59:00.108Z,7.60
